sensor_id;sensor_type;location;lat;lon;timestamp;temperature;humidity
30983;DHT22;17660;52.578;13.288;2023-07-13T10:54:38;26.60;66.80
30983;DHT22;17660;52.578;13.288;2023-07-13T10:59:49;26.80;65.80
30983;DHT22;17660;52.578;13.288;2023-07-13T11:04:44;27.10;66.40
30983;DHT22;17660;52.578;13.288;2023-07-13T11:07:25;27.00;61.00
30983;DHT22;17660;52.578;13.288;2023-07-13T11:09:57;26.90;61.90
30983;DHT22;17660;52.578;13.288;2023-07-13T11:20:10;27.00;62.30
30983;DHT22;17660;52.578;13.288;2023-07-13T11:25:35;26.80;61.10
30983;DHT22;17660;52.578;13.288;2023-07-13T11:30:32;26.70;61.90
30983;DHT22;17660;52.578;13.288;2023-07-13T11:35:34;26.70;61.50
30983;DHT22;17660;52.578;13.288;2023-07-13T11:38:02;26.60;62.80
30983;DHT22;17660;52.578;13.288;2023-07-13T11:40:29;26.70;63.40
30983;DHT22;17660;52.578;13.288;2023-07-13T11:43:00;26.80;63.80
30983;DHT22;17660;52.578;13.288;2023-07-13T11:45:28;26.90;62.50
30983;DHT22;17660;52.578;13.288;2023-07-13T11:48:19;27.10;63.60
30983;DHT22;17660;52.578;13.288;2023-07-13T11:50:51;27.30;64.30
30983;DHT22;17660;52.578;13.288;2023-07-13T11:53:19;27.50;61.30
30983;DHT22;17660;52.578;13.288;2023-07-13T11:55:46;27.50;61.30
30983;DHT22;17660;52.578;13.288;2023-07-13T11:58:14;27.50;61.70
30983;DHT22;17660;52.578;13.288;2023-07-13T12:00:43;27.30;59.90
30983;DHT22;17660;52.578;13.288;2023-07-13T12:03:10;27.10;62.00
30983;DHT22;17660;52.578;13.288;2023-07-13T12:05:38;27.00;61.50
30983;DHT22;17660;52.578;13.288;2023-07-13T12:08:21;27.00;62.70
30983;DHT22;17660;52.578;13.288;2023-07-13T12:10:56;27.10;65.40
30983;DHT22;17660;52.578;13.288;2023-07-13T12:13:23;27.10;62.30
30983;DHT22;17660;52.578;13.288;2023-07-13T12:15:49;27.10;61.40
30983;DHT22;17660;52.578;13.288;2023-07-13T12:18:20;27.10;62.40
30983;DHT22;17660;52.578;13.288;2023-07-13T12:20:47;27.20;62.50
30983;DHT22;17660;52.578;13.288;2023-07-13T12:23:24;27.30;61.50
30983;DHT22;17660;52.578;13.288;2023-07-13T12:25:52;27.40;62.90
30983;DHT22;17660;52.578;13.288;2023-07-13T12:28:19;27.50;65.60
30983;DHT22;17660;52.578;13.288;2023-07-13T12:30:47;27.60;62.40
30983;DHT22;17660;52.578;13.288;2023-07-13T12:33:15;27.70;63.40
30983;DHT22;17660;52.578;13.288;2023-07-13T12:35:45;27.80;62.40
30983;DHT22;17660;52.578;13.288;2023-07-13T12:38:13;27.70;62.50
30983;DHT22;17660;52.578;13.288;2023-07-13T12:40:39;27.60;61.40
30983;DHT22;17660;52.578;13.288;2023-07-13T12:43:10;27.60;61.50
30983;DHT22;17660;52.578;13.288;2023-07-13T12:45:38;27.70;61.50
30983;DHT22;17660;52.578;13.288;2023-07-13T12:48:06;27.90;61.60
30983;DHT22;17660;52.578;13.288;2023-07-13T12:50:40;27.80;58.60
30983;DHT22;17660;52.578;13.288;2023-07-13T12:53:14;27.60;60.60
30983;DHT22;17660;52.578;13.288;2023-07-13T12:55:45;27.50;64.00
30983;DHT22;17660;52.578;13.288;2023-07-13T12:58:16;27.70;63.50
30983;DHT22;17660;52.578;13.288;2023-07-13T13:00:48;27.90;61.70
30983;DHT22;17660;52.578;13.288;2023-07-13T13:06:03;28.00;59.80
30983;DHT22;17660;52.578;13.288;2023-07-13T13:08:32;27.90;59.70
30983;DHT22;17660;52.578;13.288;2023-07-13T13:10:59;28.00;60.50
30983;DHT22;17660;52.578;13.288;2023-07-13T13:13:26;27.80;59.60
30983;DHT22;17660;52.578;13.288;2023-07-13T13:15:52;27.70;58.40
30983;DHT22;17660;52.578;13.288;2023-07-13T13:18:21;27.50;59.80
30983;DHT22;17660;52.578;13.288;2023-07-13T13:20:48;27.40;60.00
30983;DHT22;17660;52.578;13.288;2023-07-13T13:23:16;27.50;60.80
30983;DHT22;17660;52.578;13.288;2023-07-13T13:25:48;27.50;61.10
30983;DHT22;17660;52.578;13.288;2023-07-13T13:28:15;27.50;60.70
30983;DHT22;17660;52.578;13.288;2023-07-13T13:30:43;27.50;59.70
30983;DHT22;17660;52.578;13.288;2023-07-13T13:33:11;27.50;60.30
30983;DHT22;17660;52.578;13.288;2023-07-13T13:35:38;27.50;61.40
30983;DHT22;17660;52.578;13.288;2023-07-13T13:38:25;27.70;61.90
30983;DHT22;17660;52.578;13.288;2023-07-13T13:40:52;27.70;62.10
30983;DHT22;17660;52.578;13.288;2023-07-13T13:43:25;27.60;60.80
30983;DHT22;17660;52.578;13.288;2023-07-13T13:45:53;27.60;62.90
30983;DHT22;17660;52.578;13.288;2023-07-13T13:48:39;27.70;62.70
30983;DHT22;17660;52.578;13.288;2023-07-13T13:51:13;27.80;62.20
30983;DHT22;17660;52.578;13.288;2023-07-13T13:53:40;27.70;58.90
30983;DHT22;17660;52.578;13.288;2023-07-13T13:56:07;27.70;59.40
30983;DHT22;17660;52.578;13.288;2023-07-13T13:58:33;27.70;62.40
30983;DHT22;17660;52.578;13.288;2023-07-13T14:01:00;27.80;62.20
30983;DHT22;17660;52.578;13.288;2023-07-13T14:03:27;27.70;61.60
30983;DHT22;17660;52.578;13.288;2023-07-13T14:05:54;27.80;62.60
30983;DHT22;17660;52.578;13.288;2023-07-13T14:08:22;27.90;62.90
30983;DHT22;17660;52.578;13.288;2023-07-13T14:10:50;27.70;60.00
30983;DHT22;17660;52.578;13.288;2023-07-13T14:13:22;27.60;62.00
30983;DHT22;17660;52.578;13.288;2023-07-13T14:15:55;27.60;61.60
30983;DHT22;17660;52.578;13.288;2023-07-13T14:18:22;27.50;60.00
30983;DHT22;17660;52.578;13.288;2023-07-13T14:20:50;27.50;62.40
30983;DHT22;17660;52.578;13.288;2023-07-13T14:23:19;27.40;59.60
30983;DHT22;17660;52.578;13.288;2023-07-13T14:25:46;27.40;60.30
30983;DHT22;17660;52.578;13.288;2023-07-13T14:28:23;27.30;61.90
30983;DHT22;17660;52.578;13.288;2023-07-13T14:30:51;27.50;62.90
30983;DHT22;17660;52.578;13.288;2023-07-13T14:33:18;27.50;61.90
30983;DHT22;17660;52.578;13.288;2023-07-13T14:35:46;27.60;62.00
30983;DHT22;17660;52.578;13.288;2023-07-13T14:38:18;27.70;63.80
30983;DHT22;17660;52.578;13.288;2023-07-13T14:40:46;27.60;59.90
30983;DHT22;17660;52.578;13.288;2023-07-13T14:43:13;27.60;60.60
30983;DHT22;17660;52.578;13.288;2023-07-13T14:45:41;27.60;61.70
30983;DHT22;17660;52.578;13.288;2023-07-13T14:48:26;27.60;58.40
30983;DHT22;17660;52.578;13.288;2023-07-13T14:50:53;27.40;59.80
30983;DHT22;17660;52.578;13.288;2023-07-13T14:53:21;27.40;61.20
30983;DHT22;17660;52.578;13.288;2023-07-13T14:55:48;27.50;60.50
30983;DHT22;17660;52.578;13.288;2023-07-13T14:58:16;27.50;61.60
30983;DHT22;17660;52.578;13.288;2023-07-13T15:00:43;27.50;60.70
30983;DHT22;17660;52.578;13.288;2023-07-13T15:03:17;27.50;58.60
30983;DHT22;17660;52.578;13.288;2023-07-13T15:05:46;27.50;61.30
30983;DHT22;17660;52.578;13.288;2023-07-13T15:08:12;27.60;59.30
30983;DHT22;17660;52.578;13.288;2023-07-13T15:10:39;27.60;60.90
30983;DHT22;17660;52.578;13.288;2023-07-13T15:13:14;27.70;59.10
30983;DHT22;17660;52.578;13.288;2023-07-13T15:15:43;27.70;57.40
30983;DHT22;17660;52.578;13.288;2023-07-13T15:18:11;27.80;59.90
30983;DHT22;17660;52.578;13.288;2023-07-13T15:20:38;27.90;63.00
30983;DHT22;17660;52.578;13.288;2023-07-13T15:23:05;28.00;60.40
30983;DHT22;17660;52.578;13.288;2023-07-13T15:25:33;28.00;58.40
30983;DHT22;17660;52.578;13.288;2023-07-13T15:28:00;28.10;58.80
30983;DHT22;17660;52.578;13.288;2023-07-13T15:30:31;28.00;59.20
30983;DHT22;17660;52.578;13.288;2023-07-13T15:33:11;28.00;58.80
30983;DHT22;17660;52.578;13.288;2023-07-13T15:35:38;27.80;57.10
30983;DHT22;17660;52.578;13.288;2023-07-13T15:38:12;27.70;59.50
30983;DHT22;17660;52.578;13.288;2023-07-13T15:40:39;27.80;59.30
30983;DHT22;17660;52.578;13.288;2023-07-13T15:43:10;27.90;59.00
30983;DHT22;17660;52.578;13.288;2023-07-13T15:45:37;27.80;58.80
30983;DHT22;17660;52.578;13.288;2023-07-13T15:48:19;27.80;58.00
30983;DHT22;17660;52.578;13.288;2023-07-13T15:50:50;27.70;58.60
30983;DHT22;17660;52.578;13.288;2023-07-13T15:53:25;27.60;59.20
30983;DHT22;17660;52.578;13.288;2023-07-13T15:55:52;27.60;60.70
30983;DHT22;17660;52.578;13.288;2023-07-13T15:58:19;27.50;58.70
30983;DHT22;17660;52.578;13.288;2023-07-13T16:00:47;27.50;59.60
30983;DHT22;17660;52.578;13.288;2023-07-13T16:03:17;27.40;61.90
30983;DHT22;17660;52.578;13.288;2023-07-13T16:05:45;27.30;59.60
30983;DHT22;17660;52.578;13.288;2023-07-13T16:08:46;27.30;59.80
30983;DHT22;17660;52.578;13.288;2023-07-13T16:11:15;27.20;59.00
30983;DHT22;17660;52.578;13.288;2023-07-13T16:13:43;27.00;58.90
30983;DHT22;17660;52.578;13.288;2023-07-13T16:16:12;26.80;59.90
30983;DHT22;17660;52.578;13.288;2023-07-13T16:18:39;26.80;60.00
30983;DHT22;17660;52.578;13.288;2023-07-13T16:21:10;26.80;58.90
30983;DHT22;17660;52.578;13.288;2023-07-13T16:23:38;26.80;59.40
30983;DHT22;17660;52.578;13.288;2023-07-13T16:28:53;26.70;60.10
30983;DHT22;17660;52.578;13.288;2023-07-13T16:31:30;26.70;59.80
30983;DHT22;17660;52.578;13.288;2023-07-13T16:34:01;26.50;58.50
30983;DHT22;17660;52.578;13.288;2023-07-13T16:36:27;26.40;60.30
30983;DHT22;17660;52.578;13.288;2023-07-13T16:38:55;26.40;62.20
30983;DHT22;17660;52.578;13.288;2023-07-13T16:41:21;26.30;61.50
30983;DHT22;17660;52.578;13.288;2023-07-13T16:43:48;26.40;62.10
30983;DHT22;17660;52.578;13.288;2023-07-13T16:46:18;26.30;61.10
30983;DHT22;17660;52.578;13.288;2023-07-13T16:48:46;26.30;62.50
30983;DHT22;17660;52.578;13.288;2023-07-13T16:51:12;26.20;61.40
30983;DHT22;17660;52.578;13.288;2023-07-13T16:53:39;26.10;61.40
30983;DHT22;17660;52.578;13.288;2023-07-13T16:56:17;26.10;61.60
30983;DHT22;17660;52.578;13.288;2023-07-13T16:58:44;26.00;63.60
30983;DHT22;17660;52.578;13.288;2023-07-13T17:01:11;25.80;68.20
30983;DHT22;17660;52.578;13.288;2023-07-13T17:03:38;25.70;70.90
30983;DHT22;17660;52.578;13.288;2023-07-13T17:06:23;25.60;72.40
30983;DHT22;17660;52.578;13.288;2023-07-13T17:08:53;25.50;73.20
30983;DHT22;17660;52.578;13.288;2023-07-13T17:11:21;25.40;72.60
30983;DHT22;17660;52.578;13.288;2023-07-13T17:13:49;25.30;73.60
30983;DHT22;17660;52.578;13.288;2023-07-13T17:16:15;25.10;73.60
30983;DHT22;17660;52.578;13.288;2023-07-13T17:18:43;25.10;74.20
30983;DHT22;17660;52.578;13.288;2023-07-13T17:21:12;24.90;73.80
30983;DHT22;17660;52.578;13.288;2023-07-13T17:23:40;24.90;74.20
30983;DHT22;17660;52.578;13.288;2023-07-13T17:26:07;24.70;74.30
30983;DHT22;17660;52.578;13.288;2023-07-13T17:28:33;24.70;74.90
30983;DHT22;17660;52.578;13.288;2023-07-13T17:31:00;24.60;75.50
30983;DHT22;17660;52.578;13.288;2023-07-13T17:35:58;24.60;75.70
30983;DHT22;17660;52.578;13.288;2023-07-13T17:38:29;24.40;76.30
30983;DHT22;17660;52.578;13.288;2023-07-13T17:40:56;24.40;76.80
30983;DHT22;17660;52.578;13.288;2023-07-13T17:43:23;24.40;77.60
30983;DHT22;17660;52.578;13.288;2023-07-13T17:45:50;24.30;78.50
30983;DHT22;17660;52.578;13.288;2023-07-13T17:48:18;24.30;78.40
30983;DHT22;17660;52.578;13.288;2023-07-13T17:50:46;24.20;79.30
30983;DHT22;17660;52.578;13.288;2023-07-13T17:53:17;24.30;78.90
30983;DHT22;17660;52.578;13.288;2023-07-13T17:55:44;24.20;79.20
30983;DHT22;17660;52.578;13.288;2023-07-13T17:58:11;24.20;78.90
30983;DHT22;17660;52.578;13.288;2023-07-13T18:00:38;24.20;78.70
30983;DHT22;17660;52.578;13.288;2023-07-13T18:03:14;24.20;78.80
30983;DHT22;17660;52.578;13.288;2023-07-13T18:05:41;24.00;79.20
30983;DHT22;17660;52.578;13.288;2023-07-13T18:08:25;24.00;79.60
30983;DHT22;17660;52.578;13.288;2023-07-13T18:10:56;23.90;80.00
30983;DHT22;17660;52.578;13.288;2023-07-13T18:13:24;23.90;80.30
30983;DHT22;17660;52.578;13.288;2023-07-13T18:15:52;23.90;80.60
30983;DHT22;17660;52.578;13.288;2023-07-13T18:18:26;23.90;80.70
30983;DHT22;17660;52.578;13.288;2023-07-13T18:20:56;23.80;81.30
30983;DHT22;17660;52.578;13.288;2023-07-13T18:23:23;23.70;81.10
30983;DHT22;17660;52.578;13.288;2023-07-13T18:25:50;23.70;80.90
30983;DHT22;17660;52.578;13.288;2023-07-13T18:28:20;23.70;81.00
30983;DHT22;17660;52.578;13.288;2023-07-13T18:30:50;23.70;81.00
30983;DHT22;17660;52.578;13.288;2023-07-13T18:33:18;23.70;80.90
30983;DHT22;17660;52.578;13.288;2023-07-13T18:35:46;23.70;80.90
30983;DHT22;17660;52.578;13.288;2023-07-13T18:38:22;23.70;80.60
30983;DHT22;17660;52.578;13.288;2023-07-13T18:40:57;23.70;81.00
30983;DHT22;17660;52.578;13.288;2023-07-13T18:43:24;23.60;80.90
30983;DHT22;17660;52.578;13.288;2023-07-13T18:45:55;23.60;81.30
30983;DHT22;17660;52.578;13.288;2023-07-13T18:48:23;23.60;81.30
30983;DHT22;17660;52.578;13.288;2023-07-13T18:50:53;23.60;80.90
30983;DHT22;17660;52.578;13.288;2023-07-13T18:53:21;23.50;81.40
30983;DHT22;17660;52.578;13.288;2023-07-13T18:55:48;23.50;81.30
30983;DHT22;17660;52.578;13.288;2023-07-13T18:58:15;23.50;80.70
30983;DHT22;17660;52.578;13.288;2023-07-13T19:00:45;23.50;80.70
30983;DHT22;17660;52.578;13.288;2023-07-13T19:03:16;23.40;80.50
30983;DHT22;17660;52.578;13.288;2023-07-13T19:05:44;23.30;81.10
30983;DHT22;17660;52.578;13.288;2023-07-13T19:08:26;23.20;81.30
30983;DHT22;17660;52.578;13.288;2023-07-13T19:10:53;23.20;82.10
30983;DHT22;17660;52.578;13.288;2023-07-13T19:13:29;23.20;81.60
30983;DHT22;17660;52.578;13.288;2023-07-13T19:15:56;23.10;81.10
30983;DHT22;17660;52.578;13.288;2023-07-13T19:18:24;23.10;81.70
30983;DHT22;17660;52.578;13.288;2023-07-13T19:20:53;23.00;82.20
30983;DHT22;17660;52.578;13.288;2023-07-13T19:25:51;23.00;81.80
30983;DHT22;17660;52.578;13.288;2023-07-13T19:28:25;23.00;81.70
30983;DHT22;17660;52.578;13.288;2023-07-13T19:30:52;23.00;81.50
